Time;durP1;ratioP1;P1;durP2;ratioP2;P2;SDS_P1;SDS_P2;PMS_P1;PMS_P2;Temp;Humidity;BMP_temperature;BMP_pressure;BME280_temperature;BME280_humidity;BME280_pressure;Samples;Min_cycle;Max_cycle;Signal;HPM_P1;HPM_P2
2023/03/19 00:01:32;;;;;;;33.15;13.15;;;;;;;;;;5015201;28;20045;-79
2023/03/19 00:03:59;;;;;;;29.52;13.82;;;;;;;;;;5015337;28;20061;-80
2023/03/19 00:06:26;;;;;;;29.23;13.25;;;;;;;;;;5019807;28;20049;-78
2023/03/19 00:08:52;;;;;;;41.65;12.38;;;;;;;;;;5026442;28;20049;-79
2023/03/19 00:11:19;;;;;;;25.88;12.15;;;;;;;;;;5023807;28;20041;-80
2023/03/19 00:13:45;;;;;;;27.02;12.68;;;;;;;;;;5026618;28;20108;-79
2023/03/19 00:16:13;;;;;;;31.60;13.77;;;;;;;;;;5039699;28;20049;-78
2023/03/19 00:18:40;;;;;;;26.90;13.68;;;;;;;;;;5049508;28;20060;-79
2023/03/19 00:21:07;;;;;;;26.42;13.02;;;;;;;;;;5038408;28;20049;-80
2023/03/19 00:23:35;;;;;;;28.73;13.23;;;;;;;;;;5035120;28;20037;-80
2023/03/19 00:26:02;;;;;;;28.08;13.07;;;;;;;;;;5034226;28;20382;-78
2023/03/19 00:28:29;;;;;;;24.65;12.48;;;;;;;;;;5042042;28;20041;-80
2023/03/19 00:30:56;;;;;;;29.88;13.20;;;;;;;;;;5033134;28;20351;-81
2023/03/19 00:33:24;;;;;;;27.95;12.63;;;;;;;;;;5031905;28;20076;-80
2023/03/19 00:35:50;;;;;;;29.73;13.90;;;;;;;;;;5033592;28;20041;-80
2023/03/19 00:38:17;;;;;;;27.08;13.18;;;;;;;;;;5039990;28;20052;-80
2023/03/19 00:40:44;;;;;;;27.73;13.75;;;;;;;;;;5043216;28;20130;-80
2023/03/19 00:43:11;;;;;;;32.20;14.00;;;;;;;;;;5031894;28;20065;-79
2023/03/19 00:45:37;;;;;;;26.65;13.45;;;;;;;;;;5030979;28;20057;-80
2023/03/19 00:48:04;;;;;;;27.95;13.20;;;;;;;;;;5041382;28;20120;-81
2023/03/19 00:50:31;;;;;;;28.08;12.90;;;;;;;;;;5030168;28;20275;-79
2023/03/19 00:52:58;;;;;;;24.02;12.98;;;;;;;;;;5031962;28;20038;-80
2023/03/19 00:55:26;;;;;;;33.20;13.15;;;;;;;;;;5008849;28;20048;-79
2023/03/19 00:57:52;;;;;;;25.70;12.90;;;;;;;;;;5008143;28;20121;-80
2023/03/19 01:00:19;;;;;;;25.38;12.68;;;;;;;;;;5009722;28;20046;-79
2023/03/19 01:02:46;;;;;;;29.70;13.10;;;;;;;;;;5015395;28;20057;-79
2023/03/19 01:05:13;;;;;;;24.52;11.60;;;;;;;;;;5027146;28;20038;-79
2023/03/19 01:07:40;;;;;;;23.17;11.63;;;;;;;;;;5007902;28;20038;-79
2023/03/19 01:10:07;;;;;;;29.02;12.13;;;;;;;;;;5010352;28;20133;-78
2023/03/19 01:12:34;;;;;;;24.80;12.18;;;;;;;;;;5008371;28;20064;-80
2023/03/19 01:15:01;;;;;;;26.67;12.07;;;;;;;;;;5025248;28;20092;-81
2023/03/19 01:17:27;;;;;;;24.27;12.00;;;;;;;;;;5008738;28;20049;-79
2023/03/19 01:19:55;;;;;;;25.35;11.73;;;;;;;;;;5010627;28;20046;-80
2023/03/19 01:22:21;;;;;;;23.45;12.02;;;;;;;;;;5010399;28;20168;-79
2023/03/19 01:24:53;;;;;;;24.08;11.98;;;;;;;;;;5010512;28;20057;-81
2023/03/19 01:27:20;;;;;;;28.08;12.05;;;;;;;;;;5009214;28;20065;-80
2023/03/19 01:29:49;;;;;;;24.35;12.05;;;;;;;;;;5027228;28;20544;-79
2023/03/19 01:32:25;;;;;;;24.52;11.57;;;;;;;;;;5009980;28;20049;-79
2023/03/19 01:35:11;;;;;;;23.40;11.03;;;;;;;;;;5009850;28;20145;-79
2023/03/19 01:37:37;;;;;;;27.67;12.55;;;;;;;;;;5012357;28;20076;-79
2023/03/19 01:40:05;;;;;;;21.30;11.75;;;;;;;;;;4996597;28;20045;-80
2023/03/19 01:42:32;;;;;;;26.60;11.73;;;;;;;;;;5011769;28;20514;-81
2023/03/19 01:45:34;;;;;;;24.17;11.45;;;;;;;;;;5033056;28;20056;-80
2023/03/19 01:48:39;;;;;;;24.30;11.23;;;;;;;;;;5020292;28;20113;-79
2023/03/19 01:51:12;;;;;;;26.23;11.45;;;;;;;;;;5013322;28;20399;-80
2023/03/19 01:54:01;;;;;;;23.95;11.93;;;;;;;;;;5018013;28;20048;-80
2023/03/19 01:56:58;;;;;;;22.42;11.55;;;;;;;;;;5005546;28;20060;-81
2023/03/19 01:59:50;;;;;;;20.77;11.30;;;;;;;;;;5015622;28;20038;-81
2023/03/19 02:02:37;;;;;;;28.25;12.20;;;;;;;;;;5016396;28;20103;-80
2023/03/19 02:05:28;;;;;;;24.48;11.77;;;;;;;;;;5048248;28;21907;-80
2023/03/19 02:08:03;;;;;;;25.92;11.23;;;;;;;;;;5014934;28;20125;-81
2023/03/19 02:10:30;;;;;;;24.90;11.65;;;;;;;;;;5015193;28;20042;-80
2023/03/19 02:12:57;;;;;;;21.73;10.43;;;;;;;;;;5013625;28;20049;-79
2023/03/19 02:15:24;;;;;;;24.42;11.65;;;;;;;;;;5014712;28;20448;-80
2023/03/19 02:17:51;;;;;;;26.98;11.30;;;;;;;;;;5014866;28;20073;-80
2023/03/19 02:20:33;;;;;;;22.65;11.35;;;;;;;;;;4998729;28;20056;-81
2023/03/19 02:23:14;;;;;;;25.20;11.95;;;;;;;;;;4998644;28;20080;-80
2023/03/19 02:25:43;;;;;;;24.73;11.40;;;;;;;;;;5014803;28;20046;-81
2023/03/19 02:28:10;;;;;;;26.98;10.48;;;;;;;;;;5012952;28;20052;-80
2023/03/19 02:30:38;;;;;;;23.75;11.18;;;;;;;;;;5014073;28;20303;-80
2023/03/19 02:33:11;;;;;;;21.33;10.38;;;;;;;;;;5033804;28;20052;-81
2023/03/19 02:35:38;;;;;;;23.30;10.35;;;;;;;;;;5016683;28;20053;-81
2023/03/19 02:38:06;;;;;;;22.00;10.57;;;;;;;;;;5035289;28;20047;-80
2023/03/19 02:40:38;;;;;;;21.50;10.55;;;;;;;;;;5037461;28;20464;-81
2023/03/19 02:43:05;;;;;;;28.23;10.60;;;;;;;;;;5033906;28;20037;-83
2023/03/19 02:45:31;;;;;;;20.10;10.02;;;;;;;;;;5034301;28;20069;-81
2023/03/19 02:47:59;;;;;;;24.75;9.93;;;;;;;;;;5033805;28;20057;-80
2023/03/19 02:50:27;;;;;;;22.13;10.13;;;;;;;;;;5036843;28;20046;-82
2023/03/19 02:52:53;;;;;;;25.20;10.50;;;;;;;;;;5034781;28;20042;-81
2023/03/19 02:55:21;;;;;;;22.50;10.57;;;;;;;;;;5033575;28;20049;-81
2023/03/19 02:57:47;;;;;;;20.75;9.95;;;;;;;;;;5034170;28;20120;-81
2023/03/19 03:00:15;;;;;;;23.23;10.10;;;;;;;;;;5032860;28;20445;-81
2023/03/19 03:02:42;;;;;;;23.10;10.38;;;;;;;;;;5065769;28;20065;-81
2023/03/19 03:05:09;;;;;;;21.55;11.00;;;;;;;;;;5034489;28;20042;-81
2023/03/19 03:07:39;;;;;;;19.27;9.50;;;;;;;;;;5031649;28;20103;-81
2023/03/19 03:10:07;;;;;;;21.10;10.15;;;;;;;;;;5033126;28;20048;-81
2023/03/19 03:12:34;;;;;;;22.60;9.93;;;;;;;;;;5030479;28;20045;-81
2023/03/19 03:15:00;;;;;;;24.73;10.05;;;;;;;;;;5032318;28;20179;-81
2023/03/19 03:17:28;;;;;;;22.40;9.88;;;;;;;;;;5034759;28;20489;-81
2023/03/19 03:19:55;;;;;;;21.83;9.95;;;;;;;;;;5067782;28;20490;-80
2023/03/19 03:22:22;;;;;;;22.85;10.38;;;;;;;;;;5048419;28;20080;-81
2023/03/19 03:24:49;;;;;;;19.90;9.85;;;;;;;;;;5031403;28;20121;-82
2023/03/19 03:27:16;;;;;;;24.15;10.30;;;;;;;;;;5064559;28;20061;-79
2023/03/19 03:29:42;;;;;;;26.15;10.23;;;;;;;;;;5028714;28;20049;-80
2023/03/19 03:32:09;;;;;;;19.08;10.05;;;;;;;;;;5034288;28;20062;-81
2023/03/19 03:34:36;;;;;;;21.23;9.52;;;;;;;;;;5064074;28;20063;-78
2023/03/19 03:37:02;;;;;;;22.02;9.82;;;;;;;;;;5030463;28;20358;-81
2023/03/19 03:39:29;;;;;;;24.45;10.48;;;;;;;;;;5033687;28;20140;-80
2023/03/19 03:41:56;;;;;;;20.67;10.13;;;;;;;;;;5033310;28;20107;-80
2023/03/19 03:44:22;;;;;;;25.25;10.15;;;;;;;;;;5031825;28;20086;-80
2023/03/19 03:46:49;;;;;;;21.30;9.70;;;;;;;;;;5033165;28;20053;-80
2023/03/19 03:49:16;;;;;;;18.23;9.57;;;;;;;;;;5034175;28;20533;-81
2023/03/19 03:51:42;;;;;;;26.63;10.48;;;;;;;;;;5033216;28;20038;-81
2023/03/19 03:54:09;;;;;;;20.92;10.02;;;;;;;;;;5031074;28;20438;-80
2023/03/19 03:56:36;;;;;;;24.02;10.02;;;;;;;;;;5031883;28;20038;-81
2023/03/19 03:59:07;;;;;;;19.15;9.55;;;;;;;;;;5031271;28;20124;-81
2023/03/19 04:01:34;;;;;;;22.13;9.73;;;;;;;;;;5031516;28;20072;-81
2023/03/19 04:04:01;;;;;;;19.67;9.18;;;;;;;;;;5034189;28;20113;-81
2023/03/19 04:06:33;;;;;;;21.38;9.70;;;;;;;;;;5034005;28;20053;-80
2023/03/19 04:09:12;;;;;;;24.92;10.27;;;;;;;;;;5038221;28;20089;-81
2023/03/19 04:11:40;;;;;;;22.92;9.57;;;;;;;;;;5045431;28;20045;-80
2023/03/19 04:14:07;;;;;;;21.23;9.57;;;;;;;;;;5076410;28;20057;-81
2023/03/19 04:16:36;;;;;;;20.27;9.45;;;;;;;;;;5041135;28;20041;-80
2023/03/19 04:19:03;;;;;;;22.58;9.63;;;;;;;;;;5046692;28;20037;-80
2023/03/19 04:21:30;;;;;;;18.13;9.32;;;;;;;;;;5047123;28;20060;-80
2023/03/19 04:23:57;;;;;;;24.08;9.93;;;;;;;;;;5079460;28;20113;-79
2023/03/19 04:26:24;;;;;;;19.25;9.65;;;;;;;;;;5046701;28;20056;-82
2023/03/19 04:28:54;;;;;;;19.35;9.38;;;;;;;;;;5081869;28;20056;-81
2023/03/19 04:31:20;;;;;;;19.40;9.57;;;;;;;;;;5049570;28;20045;-81
2023/03/19 04:33:48;;;;;;;22.88;9.73;;;;;;;;;;5029380;28;20041;-80
2023/03/19 04:36:16;;;;;;;18.33;8.75;;;;;;;;;;5027115;28;20041;-81
2023/03/19 04:38:43;;;;;;;25.38;10.80;;;;;;;;;;5061148;28;20049;-81
2023/03/19 04:41:10;;;;;;;22.02;9.32;;;;;;;;;;5030049;28;20037;-82
2023/03/19 04:43:43;;;;;;;21.60;9.95;;;;;;;;;;5062068;28;20046;-82
2023/03/19 04:46:09;;;;;;;19.08;9.65;;;;;;;;;;5063052;28;20053;-78
2023/03/19 04:48:38;;;;;;;18.83;9.05;;;;;;;;;;5029312;28;20030;-82
2023/03/19 04:51:07;;;;;;;16.02;9.15;;;;;;;;;;5030122;28;20060;-81
2023/03/19 04:53:36;;;;;;;18.92;9.52;;;;;;;;;;5036703;28;20051;-81
2023/03/19 04:56:03;;;;;;;21.02;9.95;;;;;;;;;;5048102;28;20040;-81
2023/03/19 04:58:30;;;;;;;20.65;9.63;;;;;;;;;;5046791;28;20060;-81
2023/03/19 05:01:00;;;;;;;20.25;10.00;;;;;;;;;;5048202;28;20105;-81
2023/03/19 05:03:58;;;;;;;19.30;9.32;;;;;;;;;;5048297;28;20044;-81
2023/03/19 05:06:26;;;;;;;17.92;8.25;;;;;;;;;;5046280;28;20224;-78
2023/03/19 05:08:53;;;;;;;18.42;8.93;;;;;;;;;;5047358;28;20052;-80
2023/03/19 05:11:21;;;;;;;21.20;9.23;;;;;;;;;;5049883;28;20064;-81
2023/03/19 05:14:01;;;;;;;20.02;8.85;;;;;;;;;;5078101;28;20174;-81
2023/03/19 05:16:36;;;;;;;21.77;9.77;;;;;;;;;;5053216;28;20047;-81
2023/03/19 05:19:02;;;;;;;20.85;9.73;;;;;;;;;;5054270;28;20072;-81
2023/03/19 05:21:31;;;;;;;18.75;9.68;;;;;;;;;;5054981;28;20034;-80
2023/03/19 05:23:58;;;;;;;18.13;9.45;;;;;;;;;;5086510;28;20041;-79
2023/03/19 05:26:26;;;;;;;18.25;9.18;;;;;;;;;;5061871;28;20055;-79
2023/03/19 05:29:22;;;;;;;20.13;9.38;;;;;;;;;;5015193;28;20085;-79
2023/03/19 05:32:11;;;;;;;16.67;8.63;;;;;;;;;;5034762;28;20038;-79
2023/03/19 05:34:39;;;;;;;21.02;9.43;;;;;;;;;;5032588;28;20045;-79
2023/03/19 05:37:06;;;;;;;17.05;8.77;;;;;;;;;;5034332;28;20087;-80
2023/03/19 05:39:34;;;;;;;24.48;10.40;;;;;;;;;;5066235;28;20065;-81
2023/03/19 05:42:05;;;;;;;22.05;10.20;;;;;;;;;;5014903;28;20064;-79
2023/03/19 05:44:32;;;;;;;22.08;10.25;;;;;;;;;;5029189;28;20497;-79
2023/03/19 05:47:16;;;;;;;27.58;11.23;;;;;;;;;;5030567;28;20052;-78
2023/03/19 05:49:50;;;;;;;21.52;10.50;;;;;;;;;;5063860;28;20395;-79
2023/03/19 05:52:17;;;;;;;21.05;10.23;;;;;;;;;;5031631;28;20041;-78
2023/03/19 05:54:48;;;;;;;23.95;11.77;;;;;;;;;;5033396;28;20073;-80
2023/03/19 05:57:38;;;;;;;27.73;12.27;;;;;;;;;;5026480;28;20128;-81
2023/03/19 06:00:11;;;;;;;26.33;12.05;;;;;;;;;;5065611;28;20046;-79
2023/03/19 06:02:38;;;;;;;22.45;11.80;;;;;;;;;;5033842;28;20133;-81
2023/03/19 06:05:34;;;;;;;25.92;11.90;;;;;;;;;;5021136;28;20521;-79
2023/03/19 06:08:30;;;;;;;26.48;13.50;;;;;;;;;;5028613;28;20045;-80
2023/03/19 06:11:20;;;;;;;30.05;13.90;;;;;;;;;;5020880;28;20053;-79
2023/03/19 06:13:55;;;;;;;27.08;13.00;;;;;;;;;;5031831;28;20507;-79
2023/03/19 06:16:22;;;;;;;28.55;13.57;;;;;;;;;;5059396;28;20382;-81
2023/03/19 06:18:53;;;;;;;26.15;12.35;;;;;;;;;;5032538;28;20041;-81
2023/03/19 06:21:22;;;;;;;24.48;10.88;;;;;;;;;;5033624;28;20049;-81
2023/03/19 06:23:50;;;;;;;24.73;11.77;;;;;;;;;;5032108;28;20056;-81
2023/03/19 06:26:33;;;;;;;24.90;11.73;;;;;;;;;;5031064;28;20041;-79
2023/03/19 06:29:13;;;;;;;22.88;10.73;;;;;;;;;;5014867;28;20378;-79
2023/03/19 06:31:43;;;;;;;28.50;13.68;;;;;;;;;;5028072;28;20577;-80
2023/03/19 06:34:25;;;;;;;25.73;11.45;;;;;;;;;;5046925;28;20126;-80
2023/03/19 06:36:52;;;;;;;25.27;11.77;;;;;;;;;;5037864;28;20049;-81
2023/03/19 06:39:19;;;;;;;24.85;12.65;;;;;;;;;;5051503;28;20041;-79
2023/03/19 06:41:46;;;;;;;27.23;11.20;;;;;;;;;;5049241;28;20386;-79
2023/03/19 06:44:17;;;;;;;22.00;10.90;;;;;;;;;;5041595;28;20105;-81
2023/03/19 06:46:44;;;;;;;20.45;10.18;;;;;;;;;;5035434;28;20036;-80
2023/03/19 06:49:14;;;;;;;19.30;10.45;;;;;;;;;;5032100;28;20494;-80
2023/03/19 06:51:43;;;;;;;25.20;13.38;;;;;;;;;;5034334;28;20418;-79
2023/03/19 06:54:10;;;;;;;29.55;15.88;;;;;;;;;;5033816;28;20053;-79
2023/03/19 06:56:36;;;;;;;25.83;11.43;;;;;;;;;;5034682;28;20041;-79
2023/03/19 06:59:04;;;;;;;21.25;9.85;;;;;;;;;;5033844;28;20095;-80
2023/03/19 07:01:30;;;;;;;21.45;10.50;;;;;;;;;;5025319;28;20121;-80
2023/03/19 07:03:57;;;;;;;24.55;9.77;;;;;;;;;;5034386;28;20049;-81
2023/03/19 07:06:24;;;;;;;19.40;9.02;;;;;;;;;;5031127;28;20048;-81
2023/03/19 07:08:50;;;;;;;18.17;8.80;;;;;;;;;;5033651;28;20042;-80
2023/03/19 07:11:17;;;;;;;17.75;8.50;;;;;;;;;;5033579;28;20045;-80
2023/03/19 07:13:46;;;;;;;19.80;8.93;;;;;;;;;;5032760;28;20403;-80
2023/03/19 07:16:13;;;;;;;21.42;7.72;;;;;;;;;;5033645;28;20446;-80
2023/03/19 07:18:39;;;;;;;17.52;8.15;;;;;;;;;;5031148;28;20075;-80
2023/03/19 07:21:06;;;;;;;18.58;8.15;;;;;;;;;;5027529;28;20045;-80
2023/03/19 07:23:33;;;;;;;16.83;7.72;;;;;;;;;;5028175;28;20430;-79
2023/03/19 07:25:59;;;;;;;24.55;10.77;;;;;;;;;;5028013;28;20793;-81
2023/03/19 07:28:26;;;;;;;31.23;13.18;;;;;;;;;;5032032;28;20063;-80
2023/03/19 07:30:55;;;;;;;39.63;16.45;;;;;;;;;;5033208;28;20053;-79
2023/03/19 07:33:22;;;;;;;30.75;13.68;;;;;;;;;;5005654;28;20073;-79
2023/03/19 07:35:49;;;;;;;32.00;14.13;;;;;;;;;;5029670;28;20049;-79
2023/03/19 07:38:16;;;;;;;20.63;9.27;;;;;;;;;;5022958;28;20042;-79
2023/03/19 07:40:42;;;;;;;16.73;8.05;;;;;;;;;;5026311;28;20124;-78
2023/03/19 07:43:47;;;;;;;16.40;7.25;;;;;;;;;;5027137;28;20072;-80
2023/03/19 07:46:13;;;;;;;18.48;7.28;;;;;;;;;;5027626;28;20079;-78
2023/03/19 07:48:40;;;;;;;15.55;6.95;;;;;;;;;;5028112;28;20038;-80
2023/03/19 07:51:06;;;;;;;12.70;6.68;;;;;;;;;;5031166;28;20119;-79
2023/03/19 07:53:33;;;;;;;13.00;6.93;;;;;;;;;;5019494;28;20484;-79
2023/03/19 07:55:59;;;;;;;17.52;7.72;;;;;;;;;;5025655;28;20096;-79
2023/03/19 07:58:26;;;;;;;16.33;7.32;;;;;;;;;;5058560;28;20051;-78
2023/03/19 08:00:53;;;;;;;16.58;8.25;;;;;;;;;;5063774;28;20072;-79
2023/03/19 08:03:20;;;;;;;17.92;9.45;;;;;;;;;;5038217;28;20049;-79
2023/03/19 08:05:47;;;;;;;24.48;10.10;;;;;;;;;;5046610;28;20060;-78
2023/03/19 08:08:14;;;;;;;26.30;11.45;;;;;;;;;;5045596;28;20112;-78
2023/03/19 08:10:41;;;;;;;14.13;7.80;;;;;;;;;;5022885;28;20145;-80
2023/03/19 08:13:07;;;;;;;16.52;6.93;;;;;;;;;;5006827;28;20372;-80
2023/03/19 08:15:37;;;;;;;17.60;7.47;;;;;;;;;;5007326;28;20046;-80
2023/03/19 08:18:04;;;;;;;18.67;7.75;;;;;;;;;;5025243;28;20049;-80
2023/03/19 08:20:31;;;;;;;19.60;7.82;;;;;;;;;;5032757;28;20053;-79
2023/03/19 08:22:58;;;;;;;15.10;7.90;;;;;;;;;;5014340;28;20057;-82
2023/03/19 08:25:25;;;;;;;14.70;7.15;;;;;;;;;;5045421;28;20397;-83
2023/03/19 08:27:53;;;;;;;17.08;7.88;;;;;;;;;;5024387;28;20042;-83
2023/03/19 08:30:19;;;;;;;15.95;7.45;;;;;;;;;;5029032;28;20081;-78
2023/03/19 08:32:48;;;;;;;14.10;6.97;;;;;;;;;;5031732;28;20081;-79
2023/03/19 08:35:14;;;;;;;12.63;6.57;;;;;;;;;;5035428;28;20070;-81
2023/03/19 08:37:41;;;;;;;11.82;6.18;;;;;;;;;;5032251;28;20056;-79
2023/03/19 08:40:08;;;;;;;17.13;6.72;;;;;;;;;;5029246;28;20053;-81
2023/03/19 08:42:37;;;;;;;17.98;7.13;;;;;;;;;;5022177;28;20063;-81
2023/03/19 08:45:05;;;;;;;13.95;6.53;;;;;;;;;;5007329;28;20092;-79
2023/03/19 08:47:31;;;;;;;16.20;6.97;;;;;;;;;;5009203;28;20552;-80
2023/03/19 08:49:58;;;;;;;21.70;7.80;;;;;;;;;;5005418;28;20054;-79
2023/03/19 08:52:24;;;;;;;14.15;6.70;;;;;;;;;;5011023;28;20062;-78
2023/03/19 08:54:51;;;;;;;16.83;6.90;;;;;;;;;;5008539;28;20049;-80
2023/03/19 08:57:18;;;;;;;16.73;6.53;;;;;;;;;;5017273;28;20531;-80
2023/03/19 08:59:44;;;;;;;14.57;6.25;;;;;;;;;;5024432;28;20046;-81
2023/03/19 09:02:11;;;;;;;15.75;6.20;;;;;;;;;;5018712;28;20049;-81
2023/03/19 09:04:41;;;;;;;14.73;6.60;;;;;;;;;;5011727;28;20049;-82
2023/03/19 09:07:14;;;;;;;14.25;6.40;;;;;;;;;;5017894;28;20054;-81
2023/03/19 09:09:42;;;;;;;14.18;6.95;;;;;;;;;;5010937;28;20172;-82
2023/03/19 09:12:09;;;;;;;16.38;6.40;;;;;;;;;;5015475;28;20853;-82
2023/03/19 09:14:36;;;;;;;16.77;6.57;;;;;;;;;;5029364;28;20056;-81
2023/03/19 09:17:03;;;;;;;16.58;6.65;;;;;;;;;;5026905;28;20108;-81
2023/03/19 09:19:33;;;;;;;13.00;6.47;;;;;;;;;;5040918;28;20691;-80
2023/03/19 09:22:00;;;;;;;17.00;6.85;;;;;;;;;;5027887;28;20056;-81
2023/03/19 09:24:26;;;;;;;14.57;6.60;;;;;;;;;;5018716;28;20393;-80
2023/03/19 09:26:53;;;;;;;12.57;6.07;;;;;;;;;;5015842;28;20069;-81
2023/03/19 09:29:20;;;;;;;12.68;6.18;;;;;;;;;;5026321;28;20062;-80
2023/03/19 09:31:46;;;;;;;14.70;6.97;;;;;;;;;;5023780;28;20046;-81
2023/03/19 09:34:13;;;;;;;14.48;6.68;;;;;;;;;;5010426;28;20096;-80
2023/03/19 09:36:40;;;;;;;13.38;6.50;;;;;;;;;;5007612;28;20046;-80
2023/03/19 09:39:07;;;;;;;17.75;6.60;;;;;;;;;;5009339;28;20053;-79
2023/03/19 09:41:37;;;;;;;16.25;6.45;;;;;;;;;;5020491;28;20060;-80
2023/03/19 09:44:27;;;;;;;17.48;6.07;;;;;;;;;;5009602;28;20133;-80
2023/03/19 09:46:56;;;;;;;15.77;6.25;;;;;;;;;;5006564;28;20119;-81
2023/03/19 09:49:25;;;;;;;13.75;6.18;;;;;;;;;;5009508;28;20049;-81
2023/03/19 09:51:53;;;;;;;13.82;5.88;;;;;;;;;;5018211;28;20057;-81
2023/03/19 09:54:23;;;;;;;16.83;5.93;;;;;;;;;;5035179;28;20045;-80
2023/03/19 09:56:49;;;;;;;13.13;6.00;;;;;;;;;;5009199;28;20053;-79
2023/03/19 09:59:16;;;;;;;15.18;5.88;;;;;;;;;;5015022;28;20046;-81
2023/03/19 10:01:46;;;;;;;16.45;6.30;;;;;;;;;;5019992;28;20056;-80
2023/03/19 10:04:18;;;;;;;16.70;5.80;;;;;;;;;;5006941;28;20067;-80
2023/03/19 10:06:45;;;;;;;19.85;5.70;;;;;;;;;;5022806;28;20042;-80
2023/03/19 10:09:21;;;;;;;15.07;5.93;;;;;;;;;;5028106;28;20041;-81
2023/03/19 10:11:53;;;;;;;16.88;6.07;;;;;;;;;;5034866;28;20059;-80
2023/03/19 10:14:35;;;;;;;12.85;5.05;;;;;;;;;;5044920;28;20132;-81
2023/03/19 10:17:03;;;;;;;13.93;5.50;;;;;;;;;;5039457;28;20052;-81
2023/03/19 10:19:37;;;;;;;12.32;5.63;;;;;;;;;;5031027;28;20069;-81
2023/03/19 10:22:18;;;;;;;13.85;4.90;;;;;;;;;;5039777;28;20044;-81
2023/03/19 10:24:45;;;;;;;12.65;4.55;;;;;;;;;;5065779;28;20109;-81
2023/03/19 10:27:17;;;;;;;12.25;4.10;;;;;;;;;;5040692;28;20442;-81
2023/03/19 10:29:44;;;;;;;10.27;4.55;;;;;;;;;;5036561;28;20046;-80
2023/03/19 10:32:13;;;;;;;9.20;4.40;;;;;;;;;;5028241;28;20528;-81
2023/03/19 10:34:41;;;;;;;10.05;4.32;;;;;;;;;;5037045;28;20049;-79
2023/03/19 10:37:21;;;;;;;8.80;4.35;;;;;;;;;;5049985;28;20051;-79
2023/03/19 10:39:49;;;;;;;11.35;4.60;;;;;;;;;;5053845;28;20124;-79
2023/03/19 10:42:25;;;;;;;11.73;4.32;;;;;;;;;;5044784;28;20079;-80
2023/03/19 10:44:51;;;;;;;;;;;;;;;;;;5031650;28;20059;-79
2023/03/19 10:47:21;;;;;;;7.63;3.08;;;;;;;;;;5052243;28;19956;-79
2023/03/19 10:49:48;;;;;;;12.23;3.42;;;;;;;;;;5048398;28;20053;-80
2023/03/19 10:52:23;;;;;;;6.78;2.65;;;;;;;;;;5071964;28;20057;-79
2023/03/19 10:55:22;;;;;;;6.03;2.45;;;;;;;;;;5045500;28;20152;-79
2023/03/19 10:57:50;;;;;;;6.53;2.20;;;;;;;;;;5036663;28;20406;-79
2023/03/19 11:00:18;;;;;;;6.60;2.42;;;;;;;;;;5030252;28;20057;-78
2023/03/19 11:02:49;;;;;;;6.50;2.30;;;;;;;;;;5027269;28;20057;-80
2023/03/19 11:05:22;;;;;;;3.92;1.83;;;;;;;;;;5045219;28;20063;-80
2023/03/19 11:08:02;;;;;;;8.23;2.20;;;;;;;;;;5050718;28;20060;-80
2023/03/19 11:10:30;;;;;;;4.65;2.00;;;;;;;;;;5040304;28;20469;-80
2023/03/19 11:12:59;;;;;;;5.80;2.33;;;;;;;;;;5036617;28;20037;-79
2023/03/19 11:15:36;;;;;;;5.78;2.25;;;;;;;;;;5034758;28;20044;-80
2023/03/19 11:18:14;;;;;;;5.45;2.10;;;;;;;;;;5029207;28;20160;-80
2023/03/19 11:20:41;;;;;;;3.97;2.03;;;;;;;;;;5023772;28;20050;-79
2023/03/19 11:23:19;;;;;;;6.90;3.25;;;;;;;;;;5033641;28;20080;-79
2023/03/19 11:25:50;;;;;;;5.18;2.80;;;;;;;;;;5025655;28;20045;-79
2023/03/19 11:28:20;;;;;;;7.68;2.90;;;;;;;;;;5032633;28;20049;-79
2023/03/19 11:31:14;;;;;;;5.45;2.83;;;;;;;;;;5029553;28;20079;-79
2023/03/19 11:33:47;;;;;;;7.30;3.28;;;;;;;;;;5063243;28;20065;-80
2023/03/19 11:36:26;;;;;;;9.18;3.03;;;;;;;;;;5038024;28;20144;-79
2023/03/19 11:38:53;;;;;;;8.13;3.10;;;;;;;;;;5058177;28;20085;-79
2023/03/19 11:41:39;;;;;;;8.00;3.17;;;;;;;;;;5041370;28;20071;-79
2023/03/19 11:44:15;;;;;;;8.80;3.20;;;;;;;;;;5030230;28;20329;-79
2023/03/19 11:46:53;;;;;;;6.80;3.30;;;;;;;;;;5027755;28;20046;-80
2023/03/19 11:49:26;;;;;;;5.85;3.20;;;;;;;;;;5034777;28;20087;-80
2023/03/19 11:51:59;;;;;;;7.50;3.10;;;;;;;;;;5061567;28;20111;-79
2023/03/19 11:54:33;;;;;;;6.43;3.17;;;;;;;;;;5032758;28;20052;-79
2023/03/19 11:57:07;;;;;;;7.00;3.08;;;;;;;;;;5009819;28;20066;-80
2023/03/19 11:59:49;;;;;;;5.25;2.88;;;;;;;;;;5014922;28;20046;-76
2023/03/19 12:02:22;;;;;;;8.18;2.70;;;;;;;;;;5025889;28;20045;-79
2023/03/19 12:05:09;;;;;;;4.57;2.15;;;;;;;;;;5062459;28;20050;-80
2023/03/19 12:07:39;;;;;;;7.47;2.17;;;;;;;;;;5012405;28;20045;-79
2023/03/19 12:10:24;;;;;;;3.33;2.03;;;;;;;;;;5030574;28;20128;-82
2023/03/19 12:12:57;;;;;;;3.63;2.10;;;;;;;;;;5035996;28;20069;-81
2023/03/19 12:15:30;;;;;;;3.50;1.95;;;;;;;;;;5031495;28;21239;-80
2023/03/19 12:17:58;;;;;;;6.30;2.25;;;;;;;;;;5029321;28;20053;-78
2023/03/19 12:20:43;;;;;;;6.55;1.92;;;;;;;;;;5030237;28;20053;-81
2023/03/19 12:23:29;;;;;;;4.82;1.88;;;;;;;;;;5046069;28;20682;-80
2023/03/19 12:26:03;;;;;;;4.38;2.22;;;;;;;;;;5050172;28;20045;-81
2023/03/19 12:28:35;;;;;;;7.68;2.42;;;;;;;;;;5036496;28;20048;-80
2023/03/19 12:31:08;;;;;;;4.55;2.00;;;;;;;;;;5045449;28;20052;-79
2023/03/19 12:33:46;;;;;;;2.85;1.90;;;;;;;;;;5031014;28;20045;-79
2023/03/19 12:36:19;;;;;;;6.22;2.20;;;;;;;;;;5035187;28;20400;-81
2023/03/19 12:38:48;;;;;;;4.07;2.13;;;;;;;;;;5072287;28;20393;-80
2023/03/19 12:41:21;;;;;;;4.80;1.90;;;;;;;;;;5040680;28;20045;-79
2023/03/19 12:44:00;;;;;;;5.78;2.15;;;;;;;;;;5040891;28;20051;-79
2023/03/19 12:46:30;;;;;;;5.35;1.92;;;;;;;;;;5048769;28;20308;-79
2023/03/19 12:48:57;;;;;;;3.30;2.00;;;;;;;;;;5048530;28;20049;-79
2023/03/19 12:51:29;;;;;;;5.22;2.08;;;;;;;;;;5048329;28;20053;-78
2023/03/19 12:53:58;;;;;;;4.97;2.28;;;;;;;;;;5035344;28;20057;-79
2023/03/19 12:56:28;;;;;;;6.65;2.10;;;;;;;;;;5027829;28;20049;-80
2023/03/19 12:58:58;;;;;;;3.58;1.45;;;;;;;;;;5032612;28;20041;-81
2023/03/19 13:01:28;;;;;;;4.25;1.67;;;;;;;;;;5047664;28;20619;-80
2023/03/19 13:04:00;;;;;;;3.17;1.60;;;;;;;;;;5048859;28;20069;-80
2023/03/19 13:06:43;;;;;;;4.57;1.40;;;;;;;;;;5021254;28;20065;-79
2023/03/19 13:09:10;;;;;;;5.10;1.40;;;;;;;;;;5028936;28;20049;-79
2023/03/19 13:11:40;;;;;;;8.20;1.70;;;;;;;;;;5034480;28;20044;-80
2023/03/19 13:14:14;;;;;;;1.42;1.00;;;;;;;;;;5049716;28;20478;-79
2023/03/19 13:16:41;;;;;;;5.27;2.00;;;;;;;;;;5031252;28;20042;-79
2023/03/19 13:19:26;;;;;;;5.50;1.90;;;;;;;;;;5060431;28;20496;-78
2023/03/19 13:21:55;;;;;;;3.58;1.92;;;;;;;;;;5062252;28;20067;-80
2023/03/19 13:24:30;;;;;;;4.63;1.70;;;;;;;;;;5027594;28;20069;-79
2023/03/19 13:27:00;;;;;;;3.23;1.70;;;;;;;;;;5029141;28;20168;-79
2023/03/19 13:29:30;;;;;;;4.22;1.50;;;;;;;;;;5033624;28;20470;-79
2023/03/19 13:32:01;;;;;;;3.78;2.10;;;;;;;;;;5039321;28;20064;-79
2023/03/19 13:34:30;;;;;;;5.20;1.95;;;;;;;;;;5051052;28;20049;-80
2023/03/19 13:37:07;;;;;;;3.90;1.83;;;;;;;;;;5052402;28;20080;-79
2023/03/19 13:39:34;;;;;;;4.85;1.85;;;;;;;;;;5069555;28;20140;-79
2023/03/19 13:42:22;;;;;;;4.50;1.73;;;;;;;;;;5043782;28;20072;-79
2023/03/19 13:44:56;;;;;;;5.25;1.80;;;;;;;;;;5049838;28;20136;-79
2023/03/19 13:47:32;;;;;;;3.33;1.50;;;;;;;;;;5040734;28;20049;-80
2023/03/19 13:50:07;;;;;;;3.63;1.85;;;;;;;;;;5043675;28;20057;-79
2023/03/19 13:52:40;;;;;;;3.80;1.33;;;;;;;;;;5041845;28;20049;-79
2023/03/19 13:55:26;;;;;;;5.88;1.52;;;;;;;;;;5040589;28;20080;-78
2023/03/19 13:58:48;;;;;;;2.33;1.13;;;;;;;;;;5030332;28;20136;-79
2023/03/19 14:01:04;;;;;;;2.90;1.50;;;;;;;;;;5040919;28;20049;-78
2023/03/19 14:03:32;;;;;;;3.85;1.60;;;;;;;;;;5052857;28;20103;-80
2023/03/19 14:05:59;;;;;;;9.23;1.90;;;;;;;;;;5055027;28;20052;-78
2023/03/19 14:08:27;;;;;;;2.65;1.17;;;;;;;;;;5037781;28;20171;-79
2023/03/19 14:10:56;;;;;;;2.75;1.48;;;;;;;;;;5062993;28;20083;-80
2023/03/19 14:13:33;;;;;;;3.55;1.50;;;;;;;;;;5064326;28;20048;-78
2023/03/19 14:16:03;;;;;;;3.45;1.27;;;;;;;;;;5032569;28;20049;-78
2023/03/19 14:18:31;;;;;;;5.07;1.73;;;;;;;;;;5037189;28;20128;-80
2023/03/19 14:21:00;;;;;;;2.75;1.33;;;;;;;;;;5081363;28;20049;-79
2023/03/19 14:23:36;;;;;;;2.67;1.20;;;;;;;;;;5033459;28;20485;-78
2023/03/19 14:26:34;;;;;;;2.25;1.10;;;;;;;;;;5031072;28;20049;-79
2023/03/19 14:29:03;;;;;;;4.88;1.40;;;;;;;;;;5037739;28;20094;-80
2023/03/19 14:31:41;;;;;;;2.80;1.27;;;;;;;;;;5053255;28;20420;-78
2023/03/19 14:34:26;;;;;;;2.50;1.10;;;;;;;;;;5051690;28;20049;-78
2023/03/19 14:37:16;;;;;;;7.50;1.50;;;;;;;;;;5011925;28;20160;-81
2023/03/19 14:39:44;;;;;;;3.03;1.20;;;;;;;;;;5037013;28;20120;-79
2023/03/19 14:42:29;;;;;;;3.53;1.25;;;;;;;;;;5048687;28;20166;-82
2023/03/19 14:45:11;;;;;;;4.10;1.35;;;;;;;;;;5004494;28;20100;-81
2023/03/19 14:47:48;;;;;;;2.92;1.30;;;;;;;;;;5034057;28;20814;-81
2023/03/19 14:50:34;;;;;;;3.50;1.20;;;;;;;;;;5040743;28;20053;-80
2023/03/19 14:53:24;;;;;;;2.55;1.40;;;;;;;;;;5036190;28;20053;-81